Pagrindinis puslapis
METAR-TAF:

METAR-TAF

Oro uostai :

Mosjøen, Norvegija

platuma: 65-48N, ilguma: 013-08E, Aukštis: 70 m

Dabartinis oras

Ataskaita buvo paskelbta 39 minutes, ne 15:20 UTC
Vėjas 13 kt iš Pietų
Temperatūra 3°C
Drėgmė 75%
Slėgis 975 hPa
Matomumas 10 km arba daugiau
Mažai debesys ne aukštis 1800 ft
Su prošvaistėmis ne aukštis 2500 ft
lietus

METAR: ENMS 211520Z 19013KT 9999 -SHRA FEW018 BKN025 03/M01 Q0975 RMK WIND 412FT 15011G21KT 090V220

Laikas: 16:59 (15:59 UTC)


TAF: trūkstamas

Orai ataskaitas ir orų prognozės (METAR, TAF).

turimą stotys yra geltonos ir raudonos taškus žemėlapyje.

Perkelti pele per norėdami pamatyti stoties vardą.

Tada spustelėkite, norėdami matyti oro stebėjimo ir prognozės.

Norėdami pakeisti žemėlapį: spustelėkite ant žalios mygtukų su juodo kryžiaus žemyn,; žalią mygtuką su brūkšneliu, jei norite nutolinti; arba žalių rodyklių gretimoms žemėlapius.


METAR-TAF: